createdAt,value
2023-02-14T00:01:04.208Z,97.41
2023-02-14T00:06:04.133Z,97.61
2023-02-14T00:11:04.080Z,98.60
2023-02-14T00:16:04.050Z,98.91
2023-02-14T00:21:03.952Z,99.23
2023-02-14T00:26:03.878Z,99.54
2023-02-14T00:31:03.957Z,99.69
2023-02-14T00:36:03.751Z,99.95
2023-02-14T00:41:03.689Z,99.64
2023-02-14T00:46:03.654Z,99.79
2023-02-14T00:51:03.563Z,99.90
2023-02-14T00:56:03.487Z,99.69
2023-02-14T01:01:03.526Z,99.37
2023-02-14T01:06:03.362Z,99.16
2023-02-14T01:11:03.302Z,99.16
2023-02-14T01:16:03.287Z,99.06
2023-02-14T01:21:03.170Z,98.75
2023-02-14T01:26:03.100Z,98.27
2023-02-14T01:31:03.098Z,98.17
2023-02-14T01:36:02.982Z,98.27
2023-02-14T01:41:02.910Z,98.21
2023-02-14T01:46:02.967Z,98.32
2023-02-14T01:51:02.782Z,98.11
2023-02-14T01:56:02.772Z,98.26
2023-02-14T02:01:03.150Z,98.37
2023-02-14T02:06:02.582Z,98.37
2023-02-14T02:11:02.521Z,98.47
2023-02-14T02:16:02.449Z,98.51
2023-02-14T02:21:02.391Z,98.72
2023-02-14T02:26:02.320Z,98.82
2023-02-14T02:31:02.739Z,98.82
2023-02-14T02:36:02.193Z,98.62
2023-02-14T02:41:02.371Z,98.62
2023-02-14T02:46:02.159Z,98.47
2023-02-14T02:51:02.291Z,98.37
2023-02-14T02:56:01.929Z,98.15
2023-02-14T03:01:02.148Z,98.05
2023-02-14T03:06:01.802Z,97.94
2023-02-14T03:11:02.083Z,97.90
2023-02-14T03:16:01.751Z,97.58
2023-02-14T03:21:01.895Z,97.17
2023-02-14T03:26:01.550Z,96.90
2023-02-14T03:31:02.048Z,97.00
2023-02-14T03:36:01.422Z,97.17
2023-02-14T03:41:01.676Z,97.17
2023-02-14T03:46:01.338Z,96.96
2023-02-14T03:51:01.540Z,96.65
2023-02-14T03:56:01.152Z,96.44
2023-02-14T04:01:01.511Z,96.69
2023-02-14T04:06:01.023Z,97.07
2023-02-14T04:11:01.399Z,97.07
2023-02-14T04:16:00.965Z,96.75
2023-02-14T04:21:01.276Z,96.75
2023-02-14T04:26:00.759Z,96.86
2023-02-14T04:31:01.253Z,97.13
2023-02-14T04:36:00.639Z,97.02
2023-02-14T04:41:01.213Z,97.02
2023-02-14T04:46:00.510Z,96.92
2023-02-14T04:51:00.841Z,97.02
2023-02-14T04:56:00.374Z,97.23
2023-02-14T05:01:00.736Z,97.19
2023-02-14T05:06:00.246Z,97.29
2023-02-14T05:11:00.435Z,97.50
2023-02-14T05:16:00.195Z,97.29
2023-02-14T05:21:00.483Z,97.19
2023-02-14T05:25:59.986Z,97.24
2023-02-14T05:31:00.219Z,97.24
2023-02-14T05:35:59.850Z,97.08
2023-02-14T05:41:00.100Z,97.29
2023-02-14T05:45:59.859Z,97.60
2023-02-14T05:51:00.010Z,97.50
2023-02-14T05:55:59.596Z,96.93
2023-02-14T06:00:59.972Z,96.83
2023-02-14T06:05:59.471Z,96.83
2023-02-14T06:10:59.745Z,96.83
2023-02-14T06:15:59.338Z,96.72
2023-02-14T06:20:59.568Z,96.52
2023-02-14T06:25:59.205Z,96.62
2023-02-14T06:30:59.724Z,96.62
2023-02-14T06:35:59.078Z,96.62
2023-02-14T06:41:00.687Z,96.52
2023-02-14T06:45:58.976Z,96.83
2023-02-14T06:50:59.305Z,96.78
2023-02-14T06:55:58.822Z,96.47
2023-02-14T07:00:59.112Z,96.47
2023-02-14T07:05:58.690Z,96.47
2023-02-14T07:10:59.073Z,96.47
2023-02-14T07:15:58.674Z,96.53
2023-02-14T07:20:58.989Z,96.44
2023-02-14T07:25:58.431Z,93.42
2023-02-14T07:30:58.880Z,87.79
2023-02-14T07:35:58.299Z,87.63
2023-02-14T07:40:58.701Z,87.92
2023-02-14T07:45:58.191Z,88.54
2023-02-14T07:50:58.572Z,88.19
2023-02-14T07:55:58.037Z,84.85
2023-02-14T08:00:58.418Z,80.59
2023-02-14T08:05:57.903Z,73.43
2023-02-14T08:10:58.138Z,68.67
2023-02-14T08:15:57.888Z,64.08
2023-02-14T08:20:58.019Z,61.10
2023-02-14T08:25:57.666Z,59.76
2023-02-14T08:30:57.989Z,55.48
2023-02-14T08:35:57.514Z,53.97
2023-02-14T08:40:57.619Z,52.17
2023-02-14T08:45:57.525Z,51.21
2023-02-14T08:50:57.532Z,48.99
2023-02-14T08:55:57.401Z,47.81
2023-02-14T09:00:57.358Z,46.55
2023-02-14T09:05:57.113Z,46.53
2023-02-14T09:10:57.049Z,46.41
2023-02-14T09:15:57.014Z,46.22
2023-02-14T09:20:57.121Z,46.10
2023-02-14T09:25:56.828Z,46.30
2023-02-14T09:30:56.826Z,46.81
2023-02-14T09:35:56.706Z,47.33
2023-02-14T09:40:56.620Z,47.69
2023-02-14T09:45:56.640Z,47.19
2023-02-14T09:50:56.513Z,46.94
2023-02-14T09:55:56.443Z,46.42
2023-02-14T10:00:56.430Z,46.44
2023-02-14T10:05:56.310Z,46.94
2023-02-14T10:10:56.224Z,45.79
2023-02-14T10:15:56.166Z,45.79
2023-02-14T10:20:56.106Z,45.45
2023-02-14T10:25:56.038Z,44.52
2023-02-14T10:30:56.016Z,44.80
2023-02-14T10:35:55.902Z,44.98
2023-02-14T10:40:55.844Z,45.10
2023-02-14T10:45:55.811Z,45.20
2023-02-14T10:50:55.706Z,45.62
2023-02-14T10:55:55.654Z,45.75
2023-02-14T11:00:55.599Z,46.07
2023-02-14T11:05:55.532Z,47.40
2023-02-14T11:10:55.477Z,48.20
2023-02-14T11:15:55.398Z,49.36
2023-02-14T11:20:55.317Z,47.84
2023-02-14T11:25:55.268Z,46.49
2023-02-14T11:30:55.318Z,46.21
2023-02-14T11:35:55.140Z,46.35
2023-02-14T11:40:55.054Z,48.26
2023-02-14T11:45:55.055Z,49.56
2023-02-14T11:50:54.936Z,49.92
2023-02-14T11:55:54.880Z,50.84
2023-02-14T12:00:54.799Z,52.11
2023-02-14T12:05:54.741Z,53.34
2023-02-14T12:10:54.670Z,56.18
2023-02-14T12:15:54.644Z,57.22
2023-02-14T12:20:54.536Z,56.91
2023-02-14T12:25:54.476Z,59.53
2023-02-14T12:30:54.491Z,61.59
2023-02-14T12:35:54.343Z,63.81
2023-02-14T12:40:54.461Z,65.80
2023-02-14T12:45:54.205Z,67.73
2023-02-14T12:50:54.129Z,69.32
2023-02-14T12:55:54.072Z,69.93
2023-02-14T13:00:54.004Z,70.61
2023-02-14T13:05:53.937Z,72.27
2023-02-14T13:10:53.865Z,71.08
2023-02-14T13:15:53.841Z,72.24
2023-02-14T13:20:53.732Z,71.97
2023-02-14T13:25:53.670Z,72.58
2023-02-14T13:30:53.608Z,72.71
2023-02-14T13:35:53.535Z,72.47
2023-02-14T13:40:53.461Z,72.82
2023-02-14T13:45:53.797Z,73.33
2023-02-14T13:50:53.336Z,73.12
2023-02-14T13:55:53.256Z,73.53
2023-02-14T14:00:53.226Z,73.84
2023-02-14T14:05:53.123Z,74.62
2023-02-14T14:10:53.065Z,74.93
2023-02-14T14:15:52.982Z,74.96
2023-02-14T14:20:52.917Z,75.48
2023-02-14T14:25:52.854Z,75.68
2023-02-14T14:30:52.811Z,75.78
2023-02-14T14:35:52.720Z,76.09
2023-02-14T14:40:52.659Z,75.68
2023-02-14T14:45:52.818Z,75.82
2023-02-14T14:50:52.525Z,75.82
2023-02-14T14:55:52.456Z,76.02
2023-02-14T15:00:52.401Z,75.31
2023-02-14T15:05:52.347Z,75.82
2023-02-14T15:10:52.262Z,76.02
2023-02-14T15:15:52.196Z,76.16
2023-02-14T15:20:52.143Z,76.57
2023-02-14T15:25:52.071Z,76.57
2023-02-14T15:30:52.086Z,77.80
2023-02-14T15:35:51.931Z,76.12
2023-02-14T15:40:51.856Z,75.95
2023-02-14T15:45:51.870Z,76.40
2023-02-14T15:50:51.722Z,77.42
2023-02-14T15:55:51.666Z,79.16
2023-02-14T16:00:51.588Z,80.13
2023-02-14T16:05:51.521Z,81.19
2023-02-14T16:10:51.455Z,82.22
2023-02-14T16:15:51.435Z,83.17
2023-02-14T16:20:51.411Z,83.79
2023-02-14T16:25:51.256Z,84.24
2023-02-14T16:30:51.262Z,84.79
2023-02-14T16:35:51.124Z,85.45
2023-02-14T16:40:51.062Z,86.06
2023-02-14T16:45:51.093Z,86.51
2023-02-14T16:50:50.917Z,86.66
2023-02-14T16:55:50.856Z,86.86
2023-02-14T17:00:50.795Z,87.42
2023-02-14T17:05:50.725Z,87.97
2023-02-14T17:10:50.649Z,88.18
2023-02-14T17:15:50.661Z,88.22
2023-02-14T17:20:50.517Z,88.22
2023-02-14T17:25:50.477Z,88.26
2023-02-14T17:30:50.441Z,88.40
2023-02-14T17:35:50.326Z,88.45
2023-02-14T17:40:50.263Z,88.80
2023-02-14T17:45:50.199Z,89.25
2023-02-14T17:50:50.118Z,89.60
2023-02-14T17:55:50.062Z,90.05
2023-02-14T18:00:49.986Z,90.26
2023-02-14T18:05:49.927Z,90.93
2023-02-14T18:10:49.863Z,91.33
2023-02-14T18:15:49.841Z,91.17
2023-02-14T18:20:49.728Z,92.10
2023-02-14T18:25:49.677Z,93.76
2023-02-14T18:30:49.700Z,92.10
2023-02-14T18:35:49.531Z,92.72
2023-02-14T18:40:49.457Z,94.68
2023-02-14T18:45:49.482Z,94.85
2023-02-14T18:50:50.507Z,94.12
2023-02-14T18:55:49.244Z,93.30
2023-02-14T19:00:49.178Z,92.10
2023-02-14T19:05:49.117Z,92.25
2023-02-14T19:10:49.043Z,92.50
2023-02-14T19:15:48.978Z,92.19
2023-02-14T19:20:49.445Z,92.40
2023-02-14T19:25:49.053Z,92.23
2023-02-14T19:30:49.232Z,92.59
2023-02-14T19:35:49.023Z,92.89
2023-02-14T19:40:49.042Z,94.39
2023-02-14T19:45:49.355Z,93.87
2023-02-14T19:50:49.059Z,93.08
2023-02-14T19:55:48.465Z,92.71
2023-02-14T20:00:48.414Z,92.34
2023-02-14T20:05:48.332Z,93.07
2023-02-14T20:10:48.266Z,93.73
2023-02-14T20:15:48.186Z,94.15
2023-02-14T20:20:48.132Z,93.94
2023-02-14T20:25:48.042Z,94.19
2023-02-14T20:30:48.104Z,97.16
2023-02-14T20:35:47.912Z,97.47
2023-02-14T20:40:47.868Z,97.05
2023-02-14T20:45:47.825Z,94.19
2023-02-14T20:50:47.718Z,93.51
2023-02-14T20:55:47.661Z,94.48
2023-02-14T21:00:47.591Z,95.94
2023-02-14T21:05:47.543Z,95.73
2023-02-14T21:10:47.468Z,96.77
2023-02-14T21:15:47.441Z,96.46
2023-02-14T21:20:47.333Z,96.14
2023-02-14T21:25:47.263Z,96.35
2023-02-14T21:30:47.333Z,94.94
2023-02-14T21:35:47.152Z,94.21
2023-02-14T21:40:47.091Z,94.88
2023-02-14T21:45:47.009Z,95.19
2023-02-14T21:50:46.962Z,94.98
2023-02-14T21:55:46.879Z,95.40
2023-02-14T22:00:46.833Z,95.13
2023-02-14T22:05:46.752Z,94.51
2023-02-14T22:10:46.694Z,94.86
2023-02-14T22:15:46.654Z,94.55
2023-02-14T22:20:46.581Z,94.86
2023-02-14T22:25:46.499Z,95.22
2023-02-14T22:30:46.433Z,96.99
2023-02-14T22:35:46.420Z,97.20
2023-02-14T22:40:46.361Z,96.78
2023-02-14T22:45:46.272Z,96.89
2023-02-14T22:50:46.223Z,97.20
2023-02-14T22:55:46.198Z,96.10
2023-02-14T23:00:46.045Z,95.47
2023-02-14T23:05:45.974Z,97.19
2023-02-14T23:10:45.916Z,98.75
2023-02-14T23:15:45.891Z,99.43
2023-02-14T23:20:45.858Z,99.74
2023-02-14T23:25:45.713Z,99.33
2023-02-14T23:30:45.656Z,98.96
2023-02-14T23:35:45.593Z,98.44
2023-02-14T23:40:45.525Z,98.44
2023-02-14T23:45:45.522Z,99.27
2023-02-14T23:50:45.402Z,98.85
2023-02-14T23:55:45.333Z,98.22
